Time;durP1;ratioP1;P1;durP2;ratioP2;P2;SDS_P1;SDS_P2;PMS_P1;PMS_P2;Temp;Humidity;BMP_temperature;BMP_pressure;BME280_temperature;BME280_humidity;BME280_pressure;Samples;Min_cycle;Max_cycle;Signal;HPM_P1;HPM_P2
2021/05/25 00:02:04;;;;;;;2.00;0.75;;;;;;;10.25;66.41;100682.84;5093746;28;20036;-57
2021/05/25 00:04:31;;;;;;;1.30;0.80;;;;;;;10.28;66.26;100676.63;5082582;28;20097;-56
2021/05/25 00:07:02;;;;;;;3.25;0.93;;;;;;;10.21;66.63;100678.34;5084084;28;20052;-52
2021/05/25 00:09:29;;;;;;;6.97;1.08;;;;;;;10.19;66.59;100675.13;5085022;28;20586;-54
2021/05/25 00:11:56;;;;;;;5.82;1.05;;;;;;;10.13;67.23;100677.31;5086011;28;20048;-61
2021/05/25 00:14:23;;;;;;;2.42;0.63;;;;;;;10.16;66.78;100686.88;5059421;28;20127;-56
2021/05/25 00:16:51;;;;;;;1.45;0.75;;;;;;;10.12;67.14;100692.28;5085903;28;20080;-53
2021/05/25 00:19:19;;;;;;;1.27;0.70;;;;;;;10.07;67.30;100694.44;5079037;28;20044;-55
2021/05/25 00:21:47;;;;;;;2.10;0.47;;;;;;;10.06;67.51;100704.69;5055008;28;20132;-57
2021/05/25 00:24:15;;;;;;;1.27;0.73;;;;;;;10.08;67.58;100707.94;5090072;28;20043;-57
2021/05/25 00:26:43;;;;;;;3.47;0.70;;;;;;;10.05;67.50;100708.63;5079939;28;20041;-51
2021/05/25 00:29:10;;;;;;;0.95;0.52;;;;;;;10.00;67.80;100717.13;5081509;28;20551;-53
2021/05/25 00:31:37;;;;;;;2.92;0.90;;;;;;;10.03;67.51;100721.16;5086958;28;20367;-52
2021/05/25 00:34:04;;;;;;;2.72;0.60;;;;;;;10.07;67.59;100722.91;5089025;28;20142;-59
2021/05/25 00:36:30;;;;;;;5.00;0.63;;;;;;;10.10;67.59;100727.75;5083974;28;20497;-58
2021/05/25 00:38:57;;;;;;;6.60;0.82;;;;;;;10.01;67.88;100727.03;5088132;28;20101;-59
2021/05/25 00:41:24;;;;;;;7.85;1.02;;;;;;;9.97;68.03;100725.28;5089792;28;20040;-62
2021/05/25 00:43:51;;;;;;;6.32;1.33;;;;;;;10.02;67.89;100730.59;5058180;28;20040;-59
2021/05/25 00:46:19;;;;;;;2.03;0.90;;;;;;;9.98;67.94;100736.00;5083887;28;20047;-59
2021/05/25 00:48:49;;;;;;;3.15;1.08;;;;;;;9.97;68.23;100739.13;5091875;28;20059;-57
2021/05/25 00:51:16;;;;;;;4.22;1.33;;;;;;;9.93;68.36;100738.19;5076003;28;20064;-57
2021/05/25 00:53:43;;;;;;;6.90;0.93;;;;;;;9.93;68.41;100738.19;5083640;28;20127;-58
2021/05/25 00:56:12;;;;;;;5.10;0.90;;;;;;;9.87;68.93;100742.31;5079619;28;20075;-58
2021/05/25 00:58:39;;;;;;;2.13;0.82;;;;;;;9.85;68.82;100739.88;5092030;28;20067;-58
2021/05/25 01:01:06;;;;;;;3.20;0.95;;;;;;;9.85;68.90;100742.66;5081382;28;20128;-59
2021/05/25 01:03:35;;;;;;;2.42;0.82;;;;;;;9.80;69.19;100745.63;5088546;28;20039;-58
2021/05/25 01:06:03;;;;;;;3.58;0.95;;;;;;;9.77;69.30;100743.53;5089328;28;20554;-58
2021/05/25 01:08:32;;;;;;;4.95;1.20;;;;;;;9.74;69.79;100747.00;5091145;28;20043;-57
2021/05/25 01:11:04;;;;;;;6.72;2.78;;;;;;;9.63;70.70;100741.09;5088678;28;20131;-58
2021/05/25 01:13:39;;;;;;;4.93;1.13;;;;;;;9.65;70.43;100746.25;5090857;28;20055;-59
2021/05/25 01:16:07;;;;;;;5.20;1.00;;;;;;;9.70;70.23;100746.03;5090743;28;20753;-57
2021/05/25 01:18:34;;;;;;;3.80;1.05;;;;;;;9.70;70.25;100762.63;5091237;28;20044;-58
2021/05/25 01:21:01;;;;;;;3.63;1.30;;;;;;;9.66;70.61;100765.25;5051238;28;20414;-58
2021/05/25 01:23:31;;;;;;;5.13;1.02;;;;;;;9.73;70.30;100756.44;5085384;28;20705;-59
2021/05/25 01:25:58;;;;;;;5.55;1.15;;;;;;;9.71;70.58;100764.25;5090845;28;20067;-57
2021/05/25 01:28:25;;;;;;;5.88;1.23;;;;;;;9.74;70.27;100769.13;5090424;28;20039;-56
2021/05/25 01:30:54;;;;;;;8.05;1.40;;;;;;;9.77;70.44;100776.72;5091304;28;20047;-56
2021/05/25 01:33:29;;;;;;;5.45;3.08;;;;;;;9.74;70.96;100774.66;5085664;28;20044;-57
2021/05/25 01:35:56;;;;;;;3.97;1.00;;;;;;;9.77;70.35;100785.00;5055918;28;20505;-52
2021/05/25 01:38:24;;;;;;;2.55;1.10;;;;;;;9.72;70.46;100783.25;5083064;28;20470;-51
2021/05/25 01:40:53;;;;;;;4.30;1.30;;;;;;;9.64;70.98;100775.03;5089806;28;20036;-50
2021/05/25 01:43:20;;;;;;;3.60;1.20;;;;;;;9.62;71.05;100780.09;5089104;28;20086;-52
2021/05/25 01:45:47;;;;;;;5.38;1.40;;;;;;;9.55;71.44;100785.38;5087110;28;20854;-52
2021/05/25 01:48:14;;;;;;;6.50;2.17;;;;;;;9.54;71.41;100781.78;5079177;28;20101;-51
2021/05/25 01:50:44;;;;;;;6.65;1.65;;;;;;;9.58;71.30;100782.72;5090532;28;20054;-53
2021/05/25 01:53:15;;;;;;;6.15;1.38;;;;;;;9.57;71.41;100781.13;5051045;28;20563;-55
2021/05/25 01:55:45;;;;;;;8.25;1.63;;;;;;;9.57;71.43;100785.84;5060030;28;20044;-52
2021/05/25 01:58:33;;;;;;;6.22;2.17;;;;;;;9.49;72.04;100789.47;5062799;28;20099;-51
2021/05/25 02:01:04;;;;;;;6.93;2.60;;;;;;;9.54;71.16;100786.50;5049633;28;20171;-49
2021/05/25 02:03:31;;;;;;;3.67;1.40;;;;;;;9.51;71.29;100793.53;5048331;28;20606;-50
2021/05/25 02:05:58;;;;;;;4.22;1.52;;;;;;;9.52;71.28;100791.56;5050024;28;20126;-53
2021/05/25 02:08:25;;;;;;;5.82;1.13;;;;;;;9.57;71.19;100796.91;5049449;28;20045;-52
2021/05/25 02:10:59;;;;;;;8.32;1.80;;;;;;;9.52;71.35;100805.38;5065055;28;20460;-53
2021/05/25 02:13:28;;;;;;;4.88;2.30;;;;;;;9.41;71.41;100801.41;5064075;28;20288;-50
2021/05/25 02:15:58;;;;;;;4.30;1.70;;;;;;;9.39;71.95;100800.94;5048930;28;20040;-50
2021/05/25 02:18:32;;;;;;;6.25;1.60;;;;;;;9.34;71.45;100801.13;5031495;28;20372;-50
2021/05/25 02:21:01;;;;;;;5.03;2.28;;;;;;;9.23;72.33;100797.13;5052354;28;20041;-52
2021/05/25 02:23:29;;;;;;;4.88;2.00;;;;;;;9.26;72.11;100802.00;5036060;28;20049;-54
2021/05/25 02:25:56;;;;;;;4.88;1.42;;;;;;;9.25;72.01;100815.00;5051889;28;20135;-51
2021/05/25 02:28:24;;;;;;;1.88;1.33;;;;;;;9.15;72.49;100813.44;5055188;28;20460;-50
2021/05/25 02:30:52;;;;;;;5.72;1.70;;;;;;;9.18;72.17;100823.81;5063327;28;20132;-50
2021/05/25 02:33:20;;;;;;;5.65;1.75;;;;;;;9.16;72.27;100820.56;5058122;28;20558;-50
2021/05/25 02:35:49;;;;;;;5.20;1.40;;;;;;;9.23;71.89;100824.75;5054402;28;20095;-51
2021/05/25 02:38:17;;;;;;;5.75;1.42;;;;;;;9.18;72.02;100829.34;5030379;28;20560;-49
2021/05/25 02:40:49;;;;;;;6.88;2.50;;;;;;;9.10;72.48;100827.44;5049038;28;20048;-52
2021/05/25 02:43:18;;;;;;;6.88;1.67;;;;;;;9.06;72.42;100822.91;5050270;28;20062;-53
2021/05/25 02:45:46;;;;;;;7.22;2.13;;;;;;;9.08;72.34;100829.72;5054781;28;20118;-50
2021/05/25 02:48:16;;;;;;;3.55;1.52;;;;;;;9.07;72.37;100827.28;5049205;28;20045;-53
2021/05/25 02:50:43;;;;;;;5.35;1.50;;;;;;;9.07;72.18;100832.81;5049936;28;20041;-50
2021/05/25 02:53:12;;;;;;;3.55;1.88;;;;;;;9.04;72.47;100834.28;5074662;28;20052;-55
2021/05/25 02:55:40;;;;;;;7.60;1.73;;;;;;;9.04;72.32;100834.28;5090589;28;20082;-52
2021/05/25 02:58:08;;;;;;;4.43;1.27;;;;;;;9.05;72.21;100835.91;5075961;28;20807;-50
2021/05/25 03:00:39;;;;;;;7.45;1.50;;;;;;;9.03;72.64;100835.41;5089720;28;20052;-54
2021/05/25 03:03:07;;;;;;;3.35;1.70;;;;;;;8.98;72.89;100835.63;5073372;28;20105;-52
2021/05/25 03:05:35;;;;;;;8.63;1.90;;;;;;;8.87;73.36;100837.13;5070614;28;20044;-53
2021/05/25 03:08:03;;;;;;;5.22;1.98;;;;;;;8.88;73.26;100833.22;5086627;28;20044;-55
2021/05/25 03:10:33;;;;;;;3.88;1.52;;;;;;;8.82;73.55;100836.50;5061184;28;20494;-52
2021/05/25 03:13:03;;;;;;;4.03;1.48;;;;;;;8.89;73.29;100840.38;5074026;28;20553;-54
2021/05/25 03:15:34;;;;;;;7.22;1.55;;;;;;;8.88;73.38;100846.22;5067126;28;20445;-52
2021/05/25 03:18:00;;;;;;;5.32;1.80;;;;;;;8.89;73.21;100851.44;5088512;28;20128;-49
2021/05/25 03:20:27;;;;;;;3.08;1.80;;;;;;;8.84;73.50;100851.59;5084845;28;20671;-52
2021/05/25 03:22:55;;;;;;;10.48;1.73;;;;;;;8.83;74.03;100849.16;5088568;28;20044;-51
2021/05/25 03:25:24;;;;;;;5.80;2.08;;;;;;;8.79;74.07;100851.75;5086463;28;20564;-51
2021/05/25 03:27:52;;;;;;;3.88;2.15;;;;;;;8.73;74.37;100850.34;5061847;28;20086;-51
2021/05/25 03:30:23;;;;;;;7.90;2.17;;;;;;;8.73;74.76;100842.06;5083296;28;20094;-51
2021/05/25 03:32:55;;;;;;;9.48;4.40;;;;;;;8.72;74.54;100854.25;5089049;28;20048;-50
2021/05/25 03:35:23;;;;;;;11.55;2.08;;;;;;;8.72;74.41;100850.66;5084745;28;20431;-52
2021/05/25 03:37:51;;;;;;;7.97;2.20;;;;;;;8.72;74.57;100859.75;5088250;28;20059;-52
2021/05/25 03:40:18;;;;;;;4.97;2.58;;;;;;;8.74;74.38;100857.47;5088564;28;20122;-51
2021/05/25 03:42:50;;;;;;;8.43;2.53;;;;;;;8.75;74.61;100861.03;5087289;28;20117;-51
2021/05/25 03:45:20;;;;;;;8.13;2.42;;;;;;;8.74;74.58;100868.50;5083940;28;20055;-52
2021/05/25 03:47:47;;;;;;;9.77;2.20;;;;;;;8.72;74.69;100870.81;5092164;28;20143;-53
2021/05/25 03:50:15;;;;;;;5.63;2.38;;;;;;;8.70;74.82;100867.56;5093046;28;20486;-52
2021/05/25 03:52:50;;;;;;;8.68;2.65;;;;;;;8.72;75.27;100870.81;5087021;28;20056;-50
2021/05/25 04:00:45;;;;;;;8.38;2.58;;;;;;;8.75;75.18;100875.66;5092018;28;20130;-57
2021/05/25 04:03:13;;;;;;;6.05;2.58;;;;;;;8.72;75.49;100879.09;5088233;28;20102;-51
2021/05/25 04:05:40;;;;;;;7.07;2.55;;;;;;;8.70;75.74;100883.31;5083631;28;20055;-52
2021/05/25 04:08:09;;;;;;;6.60;2.63;;;;;;;8.59;75.88;100871.81;5091251;28;20036;-52
2021/05/25 04:10:36;;;;;;;10.50;2.78;;;;;;;8.57;75.96;100879.63;5087299;28;20048;-53
2021/05/25 04:13:04;;;;;;;7.85;2.85;;;;;;;8.52;76.21;100883.34;5087963;28;20055;-52
2021/05/25 04:15:33;;;;;;;11.95;3.22;;;;;;;8.47;76.54;100871.69;5083272;28;20035;-51
2021/05/25 04:18:01;;;;;;;8.80;2.88;;;;;;;8.53;76.21;100873.94;5090931;28;20138;-51
2021/05/25 04:20:28;;;;;;;10.07;3.15;;;;;;;8.56;76.23;100878.81;5075981;28;20097;-52
2021/05/25 04:22:57;;;;;;;6.85;3.22;;;;;;;8.61;76.14;100885.28;5074120;28;20102;-51
2021/05/25 04:25:23;;;;;;;10.27;3.00;;;;;;;8.58;76.02;100875.69;5087376;28;20055;-50
2021/05/25 04:27:51;;;;;;;9.90;2.88;;;;;;;8.56;76.16;100883.50;5083162;28;20084;-50
2021/05/25 04:30:18;;;;;;;10.77;3.30;;;;;;;8.52;76.48;100879.78;5081283;28;20705;-55
2021/05/25 04:32:45;;;;;;;8.73;3.72;;;;;;;8.51;76.56;100886.44;5089779;28;20571;-53
2021/05/25 04:35:13;;;;;;;11.30;2.78;;;;;;;8.52;76.81;100885.31;5085297;28;20470;-53
2021/05/25 04:37:40;;;;;;;12.10;3.58;;;;;;;8.48;77.02;100892.59;5077711;28;20051;-54
2021/05/25 04:40:08;;;;;;;6.75;3.05;;;;;;;8.53;76.76;100884.16;5084521;28;20093;-50
2021/05/25 04:42:35;;;;;;;12.73;4.30;;;;;;;8.52;77.39;100893.59;5090289;28;20082;-51
2021/05/25 04:45:07;;;;;;;6.88;3.20;;;;;;;8.52;77.15;100894.38;5082545;28;20147;-49
2021/05/25 04:47:35;;;;;;;7.95;4.00;;;;;;;8.55;77.16;100887.41;5088925;28;20071;-50
2021/05/25 04:50:07;;;;;;;8.13;2.60;;;;;;;8.62;76.93;100900.69;5090086;28;20040;-51
2021/05/25 04:52:34;;;;;;;13.07;4.20;;;;;;;8.61;77.33;100899.06;5090014;28;20570;-50
2021/05/25 04:55:10;;;;;;;8.60;3.90;;;;;;;8.67;77.32;100903.28;5080120;28;20036;-49
2021/05/25 04:57:38;;;;;;;11.00;3.63;;;;;;;8.72;76.98;100903.09;5087398;28;20044;-49
2021/05/25 05:00:10;;;;;;;10.90;3.13;;;;;;;8.62;77.79;100904.28;5065068;28;20052;-58
2021/05/25 05:02:37;;;;;;;13.52;3.78;;;;;;;8.64;77.51;100906.69;5086530;28;20131;-58
2021/05/25 05:05:07;;;;;;;8.98;3.50;;;;;;;8.64;77.63;100904.75;5082272;28;20044;-59
2021/05/25 05:07:34;;;;;;;15.63;3.08;;;;;;;8.62;77.92;100909.81;5084430;28;20078;-60
2021/05/25 05:10:01;;;;;;;10.05;3.78;;;;;;;8.65;77.59;100914.66;5079342;28;20089;-59
2021/05/25 05:12:28;;;;;;;11.10;4.20;;;;;;;8.65;78.01;100914.66;5088861;28;20102;-54
2021/05/25 05:14:55;;;;;;;13.98;3.13;;;;;;;8.66;78.12;100916.28;5077627;28;20043;-56
2021/05/25 05:17:27;;;;;;;13.55;4.15;;;;;;;8.69;78.35;100915.63;5087776;28;20044;-56
2021/05/25 05:19:55;;;;;;;10.88;3.08;;;;;;;8.70;78.76;100916.44;5090665;28;20485;-56
2021/05/25 05:22:22;;;;;;;11.43;3.38;;;;;;;8.74;78.20;100912.69;5083964;28;20489;-56
2021/05/25 05:24:50;;;;;;;7.65;3.38;;;;;;;8.80;78.07;100919.66;5052842;28;20061;-53
2021/05/25 05:27:17;;;;;;;5.68;3.30;;;;;;;8.83;78.19;100924.53;5087283;28;20446;-54
2021/05/25 05:29:44;;;;;;;12.32;3.25;;;;;;;8.86;78.51;100926.63;5090778;28;20447;-56
2021/05/25 05:32:11;;;;;;;6.82;2.95;;;;;;;8.89;78.45;100937.03;5087299;28;20056;-57
2021/05/25 05:34:38;;;;;;;7.70;3.35;;;;;;;8.98;78.34;100935.03;5070872;28;20099;-58
2021/05/25 05:37:05;;;;;;;6.40;2.75;;;;;;;9.03;78.56;100943.13;5082025;28;20044;-55
2021/05/25 05:39:32;;;;;;;9.23;3.30;;;;;;;9.10;78.32;100932.41;5078509;28;20078;-57
2021/05/25 05:41:59;;;;;;;8.30;2.92;;;;;;;9.17;78.52;100942.91;5083437;28;20123;-54
2021/05/25 05:44:28;;;;;;;8.95;3.15;;;;;;;9.21;78.42;100945.84;5060458;28;20040;-54
2021/05/25 05:46:55;;;;;;;11.07;2.95;;;;;;;9.23;78.45;100944.38;5081159;28;20071;-56
2021/05/25 05:49:23;;;;;;;11.07;4.55;;;;;;;9.28;78.27;100933.13;5087409;28;20473;-58
2021/05/25 05:51:50;;;;;;;9.60;3.10;;;;;;;9.31;78.41;100945.47;5077246;28;20076;-56
2021/05/25 05:54:18;;;;;;;10.82;3.15;;;;;;;9.39;78.32;100952.91;5084272;28;20040;-56
2021/05/25 05:56:47;;;;;;;8.00;3.13;;;;;;;9.45;78.37;100941.31;5081816;28;20090;-57
2021/05/25 05:59:16;;;;;;;9.50;4.72;;;;;;;9.53;78.50;100950.75;5088563;28;20044;-58
2021/05/25 06:01:43;;;;;;;12.07;3.80;;;;;;;9.58;78.59;100948.56;5064096;28;20048;-55
2021/05/25 06:04:10;;;;;;;8.75;3.28;;;;;;;9.62;78.60;100957.00;5080344;28;20498;-54
2021/05/25 06:06:37;;;;;;;5.55;2.63;;;;;;;9.57;79.08;100957.19;5079708;28;20052;-56
2021/05/25 06:09:05;;;;;;;7.85;2.55;;;;;;;9.63;78.84;100945.63;5080422;28;20052;-58
2021/05/25 06:11:33;;;;;;;9.50;3.05;;;;;;;9.71;78.67;100952.25;5088272;28;20044;-56
2021/05/25 06:14:00;;;;;;;6.10;2.50;;;;;;;9.74;79.09;100954.34;5085951;28;20335;-57
2021/05/25 06:16:30;;;;;;;8.93;2.80;;;;;;;9.78;78.93;100939.53;5082655;28;20032;-55
2021/05/25 06:18:58;;;;;;;6.75;3.22;;;;;;;9.87;78.62;100950.53;5087929;28;20043;-54
2021/05/25 06:21:26;;;;;;;5.55;2.45;;;;;;;9.96;79.05;100956.78;5080827;28;20040;-55
2021/05/25 06:23:53;;;;;;;8.25;3.42;;;;;;;10.10;78.70;100965.66;5086398;28;20051;-56
2021/05/25 06:26:21;;;;;;;7.85;2.97;;;;;;;10.25;78.59;100972.56;5084175;28;20071;-55
2021/05/25 06:28:48;;;;;;;11.35;2.72;;;;;;;10.37;78.61;100965.16;5054487;28;20554;-56
2021/05/25 06:31:15;;;;;;;12.55;2.92;;;;;;;10.50;78.40;100959.66;5081315;28;20101;-56
2021/05/25 06:33:42;;;;;;;11.80;2.63;;;;;;;10.66;78.09;100963.44;5080876;28;20568;-57
2021/05/25 06:36:09;;;;;;;10.82;2.75;;;;;;;10.79;78.01;100970.63;5082432;28;20382;-59
2021/05/25 06:38:37;;;;;;;8.40;2.58;;;;;;;10.88;77.58;100972.16;5087791;28;20059;-58
2021/05/25 06:41:04;;;;;;;6.22;2.22;;;;;;;10.95;76.95;100968.84;5056146;28;20078;-57
2021/05/25 06:43:31;;;;;;;8.73;2.17;;;;;;;11.02;77.16;100969.06;5079063;28;20747;-56
2021/05/25 06:45:59;;;;;;;7.47;4.32;;;;;;;11.12;76.70;100979.72;5078807;28;20036;-57
2021/05/25 06:48:25;;;;;;;8.43;2.92;;;;;;;11.14;76.43;100971.88;5087936;28;20068;-56
2021/05/25 06:50:52;;;;;;;6.60;2.22;;;;;;;11.21;76.06;100968.53;5076179;28;20076;-56
2021/05/25 06:53:20;;;;;;;8.77;2.38;;;;;;;11.27;75.90;100973.53;5078205;28;20068;-56
2021/05/25 06:55:47;;;;;;;6.53;2.42;;;;;;;11.32;75.30;100973.28;5073796;28;20439;-57
2021/05/25 06:58:14;;;;;;;7.43;2.53;;;;;;;11.42;75.18;100983.94;5083437;28;20033;-58
2021/05/25 07:00:41;;;;;;;8.57;2.00;;;;;;;11.40;74.76;100979.88;5084157;28;20075;-56
2021/05/25 07:03:07;;;;;;;23.58;3.08;;;;;;;11.41;74.53;100990.63;5077655;28;20068;-56
2021/05/25 07:05:34;;;;;;;14.63;2.30;;;;;;;11.44;74.29;100992.69;5084781;28;20052;-57
2021/05/25 07:08:01;;;;;;;11.38;2.67;;;;;;;11.49;74.10;100989.69;5087453;28;20048;-57
2021/05/25 07:10:28;;;;;;;6.60;2.15;;;;;;;11.54;74.21;100986.69;5085946;28;20056;-52
2021/05/25 07:12:55;;;;;;;5.47;1.90;;;;;;;11.72;74.19;100992.06;5085843;28;20094;-58
2021/05/25 07:15:22;;;;;;;8.95;2.38;;;;;;;11.82;73.84;100984.09;5087491;28;20649;-54
2021/05/25 07:17:56;;;;;;;12.88;2.40;;;;;;;11.93;73.68;100988.00;5084050;28;20048;-54
2021/05/25 07:20:25;;;;;;;8.48;2.00;;;;;;;11.95;73.10;100984.88;5084501;28;20049;-56
2021/05/25 07:22:54;;;;;;;5.57;2.13;;;;;;;12.04;73.00;100988.34;5061402;28;20052;-55
2021/05/25 07:25:22;;;;;;;9.82;2.42;;;;;;;12.00;72.43;100987.41;5087182;28;20051;-57
2021/05/25 07:27:50;;;;;;;6.32;1.90;;;;;;;11.92;72.75;101002.22;5091017;28;20702;-60
2021/05/25 07:30:17;;;;;;;7.15;2.05;;;;;;;11.87;72.08;100994.94;5091545;28;20048;-55
2021/05/25 07:32:44;;;;;;;4.10;2.00;;;;;;;11.79;71.82;100995.06;5088751;28;20043;-57
2021/05/25 07:35:13;;;;;;;15.20;3.53;;;;;;;11.81;71.53;100998.31;5080035;28;20036;-51
2021/05/25 07:37:40;;;;;;;9.07;2.10;;;;;;;11.88;71.65;100998.53;5077652;28;20063;-55
2021/05/25 07:40:09;;;;;;;9.05;2.63;;;;;;;11.93;72.09;101001.06;5090330;28;20047;-57
2021/05/25 07:42:36;;;;;;;7.35;2.58;;;;;;;12.09;74.11;100999.22;5086513;28;20047;-58
2021/05/25 07:45:04;;;;;;;8.98;2.10;;;;;;;12.37;75.36;100996.47;5084640;28;20048;-56
2021/05/25 07:47:31;;;;;;;8.38;1.90;;;;;;;12.71;76.56;100993.13;5083173;28;20052;-54
2021/05/25 07:50:12;;;;;;;7.35;1.90;;;;;;;13.18;76.54;100982.97;5082038;28;20086;-58
2021/05/25 07:52:45;;;;;;;9.98;2.40;;;;;;;13.77;75.42;100987.63;5079819;28;20117;-58
2021/05/25 07:55:21;;;;;;;5.55;1.98;;;;;;;14.57;73.75;100987.88;5089790;28;20424;-57
2021/05/25 07:57:48;;;;;;;6.60;1.73;;;;;;;15.29;72.00;100983.34;5085708;28;20513;-56
2021/05/25 08:00:15;;;;;;;8.57;1.60;;;;;;;15.48;68.94;100993.66;5083749;28;20063;-55
2021/05/25 08:02:44;;;;;;;11.60;2.08;;;;;;;15.36;66.12;100993.81;5083227;28;20494;-54
2021/05/25 08:05:13;;;;;;;7.05;1.95;;;;;;;15.06;64.82;100997.25;5090127;28;20605;-53
2021/05/25 08:07:40;;;;;;;6.00;2.05;;;;;;;14.62;64.52;100995.97;5081551;28;20045;-52
2021/05/25 08:10:13;;;;;;;8.80;2.75;;;;;;;14.34;64.54;100995.34;5087052;28;20043;-47
2021/05/25 08:12:40;;;;;;;5.90;1.83;;;;;;;14.06;65.11;100995.47;5086160;28;20040;-51
2021/05/25 08:15:09;;;;;;;9.90;2.67;;;;;;;13.68;65.30;100995.38;5082835;28;20127;-51
2021/05/25 08:23:06;;;;;;;12.27;2.58;;;;;;;13.27;66.95;100997.50;5078862;28;20063;-51
2021/05/25 08:25:34;;;;;;;7.43;2.60;;;;;;;13.22;67.46;101003.31;5077128;28;20040;-51
2021/05/25 08:28:03;;;;;;;11.02;2.60;;;;;;;13.15;67.81;101002.34;5087912;28;20113;-53
2021/05/25 08:30:41;;;;;;;9.45;2.47;;;;;;;13.13;67.83;100999.91;5063793;28;20133;-50
2021/05/25 08:33:10;;;;;;;8.82;3.60;;;;;;;13.06;68.09;101002.47;5079535;28;20052;-50
2021/05/25 08:35:40;;;;;;;12.65;3.60;;;;;;;13.07;68.18;100997.75;5076344;28;20101;-52
2021/05/25 08:38:15;;;;;;;7.40;2.60;;;;;;;13.10;68.55;101013.72;5073883;28;20044;-54
2021/05/25 08:40:44;;;;;;;6.78;2.30;;;;;;;13.11;68.64;101004.19;5067337;28;20091;-52
2021/05/25 08:43:11;;;;;;;7.07;2.55;;;;;;;13.08;68.27;100993.81;5089473;28;20110;-50
2021/05/25 08:45:38;;;;;;;11.23;2.40;;;;;;;13.11;68.58;101002.22;5089635;28;20427;-51
2021/05/25 08:48:06;;;;;;;10.68;2.65;;;;;;;13.16;68.67;101006.72;5088387;28;20076;-48
2021/05/25 08:50:50;;;;;;;9.32;2.58;;;;;;;13.14;68.34;101006.25;5082107;28;20731;-49
2021/05/25 08:53:20;;;;;;;7.63;2.13;;;;;;;13.05;68.46;101008.38;5087850;28;20124;-55
2021/05/25 08:55:49;;;;;;;7.82;2.42;;;;;;;13.03;68.36;101005.94;5084803;28;20058;-50
2021/05/25 08:58:22;;;;;;;7.60;2.88;;;;;;;12.89;68.32;101002.78;5087272;28;20036;-49
2021/05/25 09:00:54;;;;;;;4.60;2.00;;;;;;;12.82;68.90;100997.00;5089621;28;20432;-48
2021/05/25 09:03:21;;;;;;;9.20;2.20;;;;;;;12.81;68.82;101000.97;5087689;28;20036;-49
2021/05/25 09:05:57;;;;;;;9.07;2.38;;;;;;;12.80;69.54;100988.22;5087640;28;20130;-50
2021/05/25 09:08:24;;;;;;;6.93;2.83;;;;;;;12.82;69.47;101002.56;5087157;28;20566;-49
2021/05/25 09:10:51;;;;;;;10.10;3.83;;;;;;;12.85;69.32;100996.31;5089459;28;20159;-49
2021/05/25 09:13:23;;;;;;;4.85;1.73;;;;;;;12.99;69.41;101002.28;5089110;28;20036;-48
2021/05/25 09:15:54;;;;;;;9.50;2.67;;;;;;;13.15;69.13;101000.38;5082463;28;20044;-52
2021/05/25 09:18:27;;;;;;;9.27;2.22;;;;;;;13.29;68.92;101006.28;5067434;28;20414;-51
2021/05/25 09:21:04;;;;;;;8.00;1.90;;;;;;;13.34;67.86;101008.00;5075742;28;20505;-54
2021/05/25 09:23:42;;;;;;;5.85;1.80;;;;;;;13.41;67.35;101005.41;5089101;28;20064;-51
2021/05/25 09:26:12;;;;;;;10.07;1.85;;;;;;;13.48;67.00;101013.94;5090241;28;20101;-50
2021/05/25 09:28:56;;;;;;;6.90;2.05;;;;;;;13.40;66.17;101012.13;5089718;28;20040;-57
2021/05/25 09:31:40;;;;;;;7.00;1.52;;;;;;;13.41;66.75;101014.56;5067911;28;20066;-52
2021/05/25 09:34:15;;;;;;;4.63;1.67;;;;;;;13.45;66.78;101008.28;5086090;28;20047;-53
2021/05/25 09:37:04;;;;;;;6.63;1.90;;;;;;;13.66;66.45;101009.63;5088663;28;20040;-55
2021/05/25 09:39:39;;;;;;;6.28;1.98;;;;;;;13.96;66.55;100998.81;5082554;28;20044;-53
2021/05/25 09:42:08;;;;;;;6.00;1.75;;;;;;;14.18;66.07;101005.69;5087409;28;20051;-54
2021/05/25 09:44:36;;;;;;;11.80;2.63;;;;;;;14.40;65.89;101005.06;5089573;28;20109;-49
2021/05/25 09:47:05;;;;;;;9.80;2.88;;;;;;;14.53;65.26;100998.16;5089673;28;20044;-52
2021/05/25 09:49:32;;;;;;;5.78;1.75;;;;;;;14.62;64.68;100995.97;5087764;28;20500;-51
2021/05/25 09:52:08;;;;;;;8.70;1.73;;;;;;;14.68;62.20;101000.06;5088326;28;20574;-54
2021/05/25 09:54:35;;;;;;;6.72;1.73;;;;;;;14.71;63.56;101002.13;5087971;28;20074;-53
2021/05/25 09:57:04;;;;;;;7.32;2.10;;;;;;;14.74;63.48;101004.19;5086777;28;20052;-53
2021/05/25 09:59:34;;;;;;;5.13;1.90;;;;;;;14.70;63.14;100996.91;5036467;28;20078;-55
2021/05/25 10:02:21;;;;;;;6.57;2.10;;;;;;;14.67;62.23;101003.25;5079568;28;20079;-55
2021/05/25 10:05:20;;;;;;;8.55;2.35;;;;;;;14.63;61.54;101006.75;5089225;28;20048;-54
2021/05/25 10:07:47;;;;;;;6.25;2.15;;;;;;;14.59;62.78;100997.50;5042776;28;20129;-53
2021/05/25 10:10:14;;;;;;;7.07;3.15;;;;;;;14.73;62.66;100997.00;5087857;28;20040;-54
2021/05/25 10:12:43;;;;;;;7.50;2.10;;;;;;;15.20;62.21;100991.13;5087931;28;20071;-53
2021/05/25 10:15:12;;;;;;;5.15;1.42;;;;;;;15.48;61.52;100993.66;5088992;28;20076;-54
2021/05/25 10:20:10;;;;;;;8.50;2.53;;;;;;;16.34;60.11;100997.41;5085705;28;20573;-53
2021/05/25 10:22:38;;;;;;;2.13;1.20;;;;;;;16.45;59.46;100993.59;5086285;28;20126;-53
2021/05/25 10:25:08;;;;;;;8.85;2.92;;;;;;;16.36;59.21;100989.47;5083185;28;20140;-55
2021/05/25 10:27:34;;;;;;;4.80;1.90;;;;;;;16.36;58.93;100998.63;5088660;28;20126;-54
2021/05/25 10:30:26;;;;;;;4.53;1.70;;;;;;;16.25;57.92;100986.53;5058026;28;20052;-55
2021/05/25 10:33:05;;;;;;;4.03;1.23;;;;;;;16.48;57.42;100985.63;5067397;28;20521;-52
2021/05/25 10:35:49;;;;;;;2.25;1.50;;;;;;;16.70;56.96;100976.38;5072403;28;20043;-54
2021/05/25 10:38:18;;;;;;;8.80;2.78;;;;;;;16.85;57.05;100992.13;5078305;28;20792;-55
2021/05/25 10:40:50;;;;;;;8.05;2.03;;;;;;;16.80;56.68;100982.09;5082584;28;20097;-54
2021/05/25 10:43:35;;;;;;;2.85;1.27;;;;;;;16.56;56.53;100988.16;5059505;28;20411;-58
2021/05/25 10:46:22;;;;;;;4.13;1.35;;;;;;;16.31;56.40;100987.78;5063222;28;20048;-55
2021/05/25 10:49:17;;;;;;;4.93;1.20;;;;;;;15.97;55.79;100982.50;5076757;28;20044;-54
2021/05/25 10:51:51;;;;;;;7.70;1.70;;;;;;;15.82;56.69;100981.47;5078417;28;20052;-55
2021/05/25 10:54:27;;;;;;;5.25;1.30;;;;;;;15.66;56.89;100983.59;5083843;28;20052;-53
2021/05/25 10:56:56;;;;;;;8.68;1.70;;;;;;;15.88;57.26;100985.56;5086259;28;20106;-54
2021/05/25 10:59:23;;;;;;;5.90;1.45;;;;;;;16.02;57.14;100979.41;5082915;28;20048;-57
2021/05/25 11:01:58;;;;;;;5.25;1.65;;;;;;;15.87;57.66;100981.16;5093246;28;20050;-52
2021/05/25 11:04:36;;;;;;;7.93;2.20;;;;;;;15.66;58.26;100989.19;5090788;28;20036;-56
2021/05/25 11:07:36;;;;;;;8.80;2.20;;;;;;;15.37;59.72;100992.63;5063498;28;20045;-59
2021/05/25 11:10:28;;;;;;;14.73;4.85;;;;;;;14.98;60.83;100987.16;5083171;28;20052;-54
2021/05/25 11:13:14;;;;;;;9.98;2.38;;;;;;;14.81;61.66;100986.78;5093351;28;20162;-51
2021/05/25 11:16:11;;;;;;;6.00;2.25;;;;;;;14.81;62.74;100973.66;5078691;28;20064;-52
2021/05/25 11:24:43;;;;;;;9.00;2.00;;;;;;;15.40;62.94;100986.31;5080881;28;20375;-52
2021/05/25 11:27:12;;;;;;;4.38;1.75;;;;;;;15.37;62.74;100975.91;5090523;28;20036;-48
2021/05/25 11:29:56;;;;;;;6.15;1.77;;;;;;;15.38;63.45;100972.72;5053340;28;20040;-51
2021/05/25 11:32:28;;;;;;;6.18;1.90;;;;;;;15.57;63.16;100975.47;5054563;28;20090;-48
2021/05/25 11:35:01;;;;;;;6.82;2.75;;;;;;;15.74;62.43;100968.59;5072729;28;20084;-51
2021/05/25 11:37:38;;;;;;;4.55;1.20;;;;;;;15.88;61.06;100974.41;5063575;28;20044;-53
2021/05/25 11:40:10;;;;;;;8.10;1.40;;;;;;;15.84;60.06;100967.94;5092154;28;20039;-51
2021/05/25 11:42:37;;;;;;;7.32;1.42;;;;;;;15.98;60.68;100954.22;5084067;28;20378;-54
2021/05/25 11:45:09;;;;;;;7.78;1.50;;;;;;;16.22;60.40;100964.13;5080048;28;20142;-52
2021/05/25 11:47:40;;;;;;;13.57;2.05;;;;;;;16.40;60.28;100951.19;5077980;28;20093;-53
2021/05/25 11:50:13;;;;;;;4.90;1.70;;;;;;;16.48;59.89;100952.91;5090310;28;20047;-50
2021/05/25 11:53:00;;;;;;;8.27;2.72;;;;;;;16.35;59.79;100957.13;5072827;28;20444;-53
2021/05/25 11:55:27;;;;;;;6.50;1.27;;;;;;;16.17;59.06;100953.28;5088337;28;20538;-49
2021/05/25 11:57:55;;;;;;;7.70;2.10;;;;;;;15.96;58.52;100953.78;5076395;28;20386;-55
2021/05/25 12:00:28;;;;;;;4.47;1.95;;;;;;;15.92;58.30;100946.50;5087624;28;20105;-56